Floreffe, Belgium
Current Conditions -  °F | °C
As of 9:20 AM on Monday 26 Jan 2015 (Local Time) from EBCI Reporting Station
Drizzle Drizzle  
Wind Chill:   Ceiling: 300
Heat Index:   Visibility: 1.1mi
Dew Point:   Wind: 12mph
Humidity: 100%   Direction: 210°SSW
Pressure: 30.18"   Gusts: NA
Location:  50.43°N, 4.76°E
Report Text: EBCI 260820Z 21010KT 1800 -DZ BR SCT002 BKN003 04/04 Q1022 R25/290095 NOSIG
Loading
Personal Weather Stations






























Interactive Weather Map New forecast layout! Learn more

10-Day Weather Forecast

Advertisements
Track Severe Weather on mobile